Flight Track Log - Related Links

Times and Time Zones

All times are in EDT time to prevent confusion due to time zone crossing. See the N4100P flight status page for this flight to view local times or setup timezone preferences in your user account.

Time Position Orientation Groundspeed Altitude Reporting Facility
EDT Latitude Longitude Course Direction KTS MPH feet Rate Location/Type
Sat 10:05:05 AM 38.3000 -78.8500 38° Northeast 110 127 3,000  Level Potomac TRACON
Sat 10:06:05 AM 38.3167 -78.8167 57° Northeast 123 142 3,800 842 Climbing Potomac TRACON
Sat 10:06:59 AM 38.3667 -78.8000 15° North 119 137 4,600 632 Climbing Potomac TRACON
Sat 10:07:59 AM 38.3833 -78.7833 38° Northeast 127 146 5,000 150 Climbing Potomac TRACON
Sat 10:08:59 AM 38.4167 -78.7500 38° Northeast 143 165 4,900  Descending Potomac TRACON
Sat 10:09:53 AM 38.4333 -78.7167 57° Northeast 136 157 5,000 105 Climbing Potomac TRACON
Sat 10:10:00 AM 38.3789 -78.7711 38° Northeast  Level FlightAware Approximate
Sat 10:10:53 AM 38.4667 -78.6667 50° Northeast 139 160 5,100  Level Potomac TRACON
Sat 10:11:58 AM 38.4972 -78.6478 26° Northeast 140 161 4,900 -435 Descending Washington Center
Sat 10:12:57 AM 38.5272 -78.6197 36° Northeast 130 150 4,200 -550 Descending Washington Center
Sat 10:13:58 AM 38.5525 -78.6050 24° Northeast 125 144 3,800 -595 Descending Washington Center
Sat 10:14:58 AM 38.5739 -78.5844 37° Northeast 113 130 3,000 610 Descending Washington Center
Sat 10:15:56 AM 38.6058 -78.5619 29° Northeast 113 130 5,000 1,017 Climbing Washington Center
Sat 10:16:56 AM 38.6314 -78.5364 38° Northeast 113 130 5,000  Level Washington Center
Sat 10:17:56 AM 38.6592 -78.5108 36° Northeast 113 130 5,000 200 Level Washington Center
Sat 10:21:56 AM 38.6592 -78.5108 218° Southwest 113 130 6,000 199 Climbing Washington Center
Sat 10:22:57 AM 38.7431 -78.4025 45° Northeast 113 130 6,000 -639 Level Washington Center
Sat 10:23:58 AM 38.7689 -78.3581 53° Northeast 130 150 4,700 -198 Descending Washington Center
Sat 10:24:58 AM 38.7864 -78.3269 54° Northeast 118 136 5,600 706 Climbing Washington Center
Sat 10:25:57 AM 38.8061 -78.2903 55° Northeast 118 136 6,100 150 Climbing Washington Center
Sat 10:26:58 AM 38.8278 -78.2483 56° Northeast 126 145 5,900 -50 Descending Washington Center
Sat 10:27:58 AM 38.8597 -78.2203 34° Northeast 131 151 6,000 150 Climbing Washington Center
Sat 10:28:58 AM 38.8714 -78.2528 295° West 95 109 6,200 50 Climbing Washington Center
Sat 10:29:57 AM 38.8436 -78.2808 218° Southwest 61 70 6,100 -50 Descending Washington Center
Sat 10:30:58 AM 38.8200 -78.3175 230° Southwest 104 120 6,100  Level Washington Center
Sat 10:31:56 AM 38.7903 -78.3431 214° Southwest 123 142 6,100 -51 Level Washington Center
Sat 10:32:56 AM 38.7606 -78.3683 214° Southwest 130 150 6,000 -50 Descending Washington Center
Sat 10:33:57 AM 38.7325 -78.3994 221° Southwest 135 155 6,000  Level Washington Center
Sat 10:34:57 AM 38.7069 -78.4250 218° Southwest 135 155 6,000 50 Level Washington Center
Sat 10:35:58 AM 38.6792 -78.4531 218° Southwest 135 155 6,100  Climbing Washington Center
Sat 10:36:58 AM 38.6556 -78.4867 228° Southwest 135 155 6,000  Descending Washington Center
Sat 10:37:56 AM 38.6256 -78.5122 214° Southwest 135 155 6,100  Climbing Washington Center
Sat 10:38:57 AM 38.5981 -78.5378 216° Southwest 135 155 6,000 -49 Descending Washington Center
Sat 10:39:58 AM 38.5703 -78.5658 218° Southwest 135 155 6,000 50 Level Washington Center
Sat 10:40:58 AM 38.5444 -78.5967 223° Southwest 135 155 6,100  Climbing Washington Center
Sat 10:41:56 AM 38.5186 -78.6300 225° Southwest 130 150 6,000 -50 Descending Washington Center
Sat 10:42:57 AM 38.4867 -78.6500 206° Southwest 130 150 6,000 49 Level Washington Center
Sat 10:43:58 AM 38.4608 -78.6808 223° Southwest 130 150 6,100 50 Climbing Washington Center
Sat 10:44:58 AM 38.4392 -78.7142 230° Southwest 130 150 6,100 -51 Level Washington Center
Sat 10:45:56 AM 38.4033 -78.7261 195° South 125 144 6,000 -33 Descending Washington Center
Sat 10:48:02 AM 38.3333 -78.7667 204° Southwest 121 139 6,000  Level Potomac TRACON
Sat 10:49:02 AM 38.3000 -78.7833 201° Southwest 129 148 6,000  Level Potomac TRACON
Sat 10:50:03 AM 38.2667 -78.8000 201° Southwest 127 146 6,000  Level Potomac TRACON
Sat 10:51:03 AM 38.2333 -78.8167 201° Southwest 132 152 6,000 50 Level Potomac TRACON
Sat 10:52:04 AM 38.2167 -78.8500 238° Southwest 121 139 6,100 47 Climbing Potomac TRACON
Sat 10:53:10 AM 38.1833 -78.8833 218° Southwest 126 145 6,100  Level Potomac TRACON
Sat 10:54:10 AM 38.1667 -78.9167 238° Southwest 123 142 6,100  Level Potomac TRACON
Sat 10:55:10 AM 38.1333 -78.9333 201° Southwest 127 146 6,100  Level Potomac TRACON
Sat 10:56:11 AM 38.1000 -78.9500 201° Southwest 133 153 6,100  Level Potomac TRACON
Sat 10:57:11 AM 38.0667 -78.9500 180° South 122 140 6,100 -48 Level Potomac TRACON
Sat 10:58:17 AM 38.0500 -78.9667 218° Southwest 150 173 6,000 -381 Descending Potomac TRACON
Sat 10:59:17 AM 38.0667 -79.0000 302° West 129 148 5,300 -730 Descending Potomac TRACON
Sat 11:00:12 AM 38.0833 -79.0333 302° West 122 140 4,600 -397 Descending Potomac TRACON
Sat 11:01:18 AM 38.1167 -79.0333 360° North 118 136 4,500 -238 Descending Potomac TRACON
Sat 11:02:18 AM 38.1500 -79.0167 21° North 91 105 4,100 -526 Descending Potomac TRACON
Sat 11:03:12 AM 38.1667 -79.0000 38° Northeast 92 106 3,500 -600 Descending Potomac TRACON
Sat 11:04:18 AM 38.1833 -78.9833 38° Northeast 89 102 2,900 -347 Descending Potomac TRACON
Sat 11:05:13 AM 38.2000 -78.9667 38° Northeast 85 98 2,800 -397 Descending Potomac TRACON
Sat 11:06:19 AM 38.2167 -78.9333 58° Northeast 92 106 2,100 -550 Descending Potomac TRACON
Sat 11:07:13 AM 38.2333 -78.9167 38° Northeast 90 104 1,700 -365 Descending Potomac TRACON
Sat 11:08:14 AM 38.2500 -78.9000 38° Northeast 86 99 1,400 -149 Descending Potomac TRACON
Sat 11:09:14 AM 38.2667 -78.9000 360° North 85 98 1,400  Level Potomac TRACON

Login

Don't have an account? Register now (free) for customized features, flight alerts, and more!